Terminal Aerodrome Forecast
Issued by NWS

Home | Current Version | Previous Version | Text Only | Print | Product List | Glossary On
Versions: 1 2 3 4 5 6 7 8 9 10 11 12 13 14 15
703
FTUS46 KSEW 101120
TAFBFI
TAF
KBFI 101120Z 1012/1112 15006KT P6SM BKN120 BKN200
     FM102100 18008KT P6SM BKN060 BKN120
     FM110600 15006KT P6SM BKN050 BKN100=

USA.gov is the U.S. government's official web portal to all federal, state and local government web resources and services.